Time;durP1;ratioP1;P1;durP2;ratioP2;P2;SDS_P1;SDS_P2;PMS_P1;PMS_P2;Temp;Humidity;BMP_temperature;BMP_pressure;BME280_temperature;BME280_humidity;BME280_pressure;Samples;Min_cycle;Max_cycle;Signal;HPM_P1;HPM_P2
2023/01/16 00:01:59;;;;;;;7.22;2.90;;;4.60;99.90;;;;;;5092782;28;20131;-63
2023/01/16 00:04:26;;;;;;;8.00;2.70;;;4.60;99.90;;;;;;5091070;28;20115;-61
2023/01/16 00:06:52;;;;;;;7.95;2.75;;;4.60;99.90;;;;;;5086654;28;20078;-63
2023/01/16 00:09:18;;;;;;;6.55;2.60;;;4.60;99.90;;;;;;5092125;28;20138;-63
2023/01/16 00:11:44;;;;;;;4.75;2.47;;;4.60;99.90;;;;;;5079221;28;20115;-63
2023/01/16 00:14:10;;;;;;;8.57;2.67;;;4.60;99.90;;;;;;5091006;28;20081;-62
2023/01/16 00:16:36;;;;;;;7.07;2.63;;;4.60;99.90;;;;;;5091774;28;20517;-60
2023/01/16 00:19:02;;;;;;;6.18;2.70;;;4.60;99.90;;;;;;5091845;28;20498;-62
2023/01/16 00:21:28;;;;;;;7.15;2.53;;;4.60;99.90;;;;;;5092140;28;20077;-64
2023/01/16 00:23:58;;;;;;;6.40;2.78;;;4.60;99.90;;;;;;5090087;28;20773;-62
2023/01/16 00:26:24;;;;;;;8.07;2.50;;;4.60;99.90;;;;;;5085299;28;20040;-63
2023/01/16 00:28:50;;;;;;;7.38;2.42;;;4.60;99.90;;;;;;5042698;28;20459;-62
2023/01/16 00:31:16;;;;;;;8.05;2.35;;;4.60;99.90;;;;;;5085746;28;20093;-61
2023/01/16 00:33:42;;;;;;;8.15;2.38;;;4.60;99.90;;;;;;5081944;28;20097;-63
2023/01/16 00:36:09;;;;;;;6.57;2.35;;;4.60;99.90;;;;;;5090382;28;20062;-63
2023/01/16 00:38:36;;;;;;;11.20;2.80;;;4.60;99.90;;;;;;5091870;28;20043;-62
2023/01/16 00:41:02;;;;;;;8.38;2.65;;;4.60;99.90;;;;;;5090857;28;20229;-63
2023/01/16 00:43:28;;;;;;;7.28;2.70;;;4.60;99.90;;;;;;5086130;28;20185;-63
2023/01/16 00:45:54;;;;;;;8.18;2.53;;;4.60;99.90;;;;;;5066776;28;20541;-63
2023/01/16 00:48:19;;;;;;;10.10;2.70;;;4.50;99.90;;;;;;5091196;28;20024;-62
2023/01/16 00:50:45;;;;;;;8.40;2.72;;;4.50;99.90;;;;;;5076982;28;20048;-60
2023/01/16 00:53:11;;;;;;;8.65;3.10;;;4.50;99.90;;;;;;5072924;28;20043;-62
2023/01/16 00:55:36;;;;;;;8.15;3.22;;;4.50;99.90;;;;;;5067982;28;20051;-62
2023/01/16 00:58:05;;;;;;;8.10;3.20;;;4.50;99.90;;;;;;5065590;28;20036;-62
2023/01/16 01:00:31;;;;;;;7.25;2.85;;;4.50;99.90;;;;;;5091293;28;20627;-62
2023/01/16 01:02:56;;;;;;;9.88;2.92;;;4.50;99.90;;;;;;5088490;28;20280;-62
2023/01/16 01:05:22;;;;;;;11.65;2.42;;;4.50;99.90;;;;;;5087539;28;20036;-62
2023/01/16 01:07:48;;;;;;;7.75;2.38;;;4.50;99.90;;;;;;5069879;28;20043;-63
2023/01/16 01:10:13;;;;;;;6.50;2.65;;;4.50;99.90;;;;;;5090594;28;20068;-63
2023/01/16 01:12:42;;;;;;;9.43;2.75;;;4.50;99.90;;;;;;5085317;28;20024;-61
2023/01/16 01:15:08;;;;;;;8.32;2.92;;;4.50;99.90;;;;;;5090992;28;20101;-62
2023/01/16 01:17:33;;;;;;;7.82;2.53;;;4.50;99.90;;;;;;5090958;28;20028;-63
2023/01/16 01:19:59;;;;;;;7.72;2.47;;;4.60;99.90;;;;;;5088376;28;20039;-60
2023/01/16 01:22:26;;;;;;;8.30;2.25;;;4.60;99.90;;;;;;5083020;28;20044;-63
2023/01/16 01:24:52;;;;;;;8.02;2.53;;;4.60;99.90;;;;;;5066711;28;20127;-62
2023/01/16 01:27:18;;;;;;;6.18;2.30;;;4.60;99.90;;;;;;5080227;28;20077;-62
2023/01/16 01:29:44;;;;;;;8.13;2.65;;;4.60;99.90;;;;;;5069274;28;20075;-62
2023/01/16 01:32:10;;;;;;;8.95;2.70;;;4.60;99.90;;;;;;5088330;28;20465;-61
2023/01/16 01:34:36;;;;;;;7.88;2.35;;;4.60;99.90;;;;;;5090311;28;20072;-63
2023/01/16 01:37:05;;;;;;;9.68;2.65;;;4.70;99.90;;;;;;5075719;28;20511;-61
2023/01/16 01:39:31;;;;;;;7.40;2.35;;;4.70;99.90;;;;;;5089232;28;20024;-61
2023/01/16 01:44:51;;;;;;;10.38;2.30;;;4.70;99.90;;;;;;5085658;28;20170;-61
2023/01/16 01:47:20;;;;;;;7.82;2.10;;;4.70;99.90;;;;;;5082293;28;20549;-61
2023/01/16 01:49:47;;;;;;;9.18;2.67;;;4.70;99.90;;;;;;5089521;28;20040;-63
2023/01/16 01:52:13;;;;;;;10.20;2.55;;;4.70;99.90;;;;;;5069695;28;20063;-62
2023/01/16 01:54:45;;;;;;;9.70;2.33;;;4.70;99.90;;;;;;5071224;28;20040;-61
2023/01/16 01:57:23;;;;;;;6.85;2.55;;;4.70;99.90;;;;;;5069151;28;20494;-62
2023/01/16 02:00:01;;;;;;;8.63;2.78;;;4.80;99.90;;;;;;5088362;28;20048;-61
2023/01/16 02:02:34;;;;;;;4.93;2.30;;;4.80;99.90;;;;;;5083366;28;20079;-61
2023/01/16 02:05:03;;;;;;;8.80;2.60;;;4.80;99.90;;;;;;5081505;28;20039;-60
2023/01/16 02:07:29;;;;;;;5.25;2.25;;;4.80;99.90;;;;;;5072528;28;20040;-61
2023/01/16 02:10:04;;;;;;;7.97;2.53;;;4.80;99.90;;;;;;5083775;28;20036;-60
2023/01/16 02:12:31;;;;;;;5.55;2.45;;;4.80;99.90;;;;;;5074919;28;20044;-60
2023/01/16 02:14:58;;;;;;;12.68;2.80;;;4.80;99.90;;;;;;5089622;28;20032;-62
2023/01/16 02:20:14;;;;;;;8.20;2.30;;;4.80;99.90;;;;;;5087134;28;20047;-62
2023/01/16 02:22:57;;;;;;;10.60;2.88;;;4.80;99.90;;;;;;5070717;28;20177;-62
2023/01/16 02:25:43;;;;;;;7.65;2.38;;;4.80;99.90;;;;;;5058289;28;20048;-64
2023/01/16 02:28:33;;;;;;;8.57;2.40;;;4.80;99.90;;;;;;5068560;28;20515;-61
2023/01/16 02:31:36;;;;;;;7.25;2.70;;;4.80;99.90;;;;;;5081521;28;20032;-61
2023/01/16 02:34:08;;;;;;;;;;;4.80;99.90;;;;;;5074230;28;20398;-62
2023/01/16 02:36:45;;;;;;;10.57;2.55;;;4.80;99.90;;;;;;5089956;28;19916;-64
2023/01/16 02:39:27;;;;;;;6.57;2.60;;;4.80;99.90;;;;;;5074913;28;20093;-61
2023/01/16 02:42:24;;;;;;;5.50;2.72;;;4.80;99.90;;;;;;5087370;28;20036;-61
2023/01/16 02:45:13;;;;;;;5.90;2.65;;;4.80;99.90;;;;;;5078654;28;20115;-64
2023/01/16 02:47:45;;;;;;;7.00;2.80;;;4.80;99.90;;;;;;5073511;28;20040;-62
2023/01/16 02:50:21;;;;;;;9.40;3.10;;;4.80;99.90;;;;;;5089235;28;20032;-61
2023/01/16 02:53:12;;;;;;;7.35;3.03;;;4.70;99.90;;;;;;5087693;28;20387;-61
2023/01/16 02:56:04;;;;;;;8.70;3.20;;;3.80;99.90;;;;;;5065058;28;20047;-62
2023/01/16 02:58:32;;;;;;;8.82;3.33;;;4.70;99.90;;;;;;5086756;28;20032;-61
2023/01/16 03:00:59;;;;;;;8.73;3.78;;;4.70;99.90;;;;;;5081273;28;20420;-60
2023/01/16 03:03:37;;;;;;;8.05;3.50;;;4.70;99.90;;;;;;5067471;28;20040;-61
2023/01/16 03:06:30;;;;;;;7.43;4.00;;;4.70;99.90;;;;;;5069891;28;20420;-63
2023/01/16 03:09:31;;;;;;;6.80;3.47;;;4.70;99.90;;;;;;5083212;28;20123;-63
2023/01/16 03:12:24;;;;;;;8.52;3.58;;;4.70;99.90;;;;;;5046661;28;20060;-61
2023/01/16 03:15:05;;;;;;;8.32;3.92;;;4.70;99.90;;;;;;5077081;28;20398;-62
2023/01/16 03:18:04;;;;;;;11.00;3.88;;;4.70;99.90;;;;;;5087834;28;20036;-62
2023/01/16 03:20:54;;;;;;;8.95;3.78;;;4.70;99.90;;;;;;5066919;28;20079;-61
2023/01/16 03:23:47;;;;;;;9.43;4.28;;;4.70;99.90;;;;;;5077755;28;20036;-62
2023/01/16 03:26:33;;;;;;;9.93;3.97;;;4.70;99.90;;;;;;5068019;28;20076;-62
2023/01/16 03:29:17;;;;;;;7.70;4.50;;;4.70;99.90;;;;;;5055372;28;20405;-61
2023/01/16 03:32:00;;;;;;;9.05;4.38;;;4.70;99.90;;;;;;5090818;28;20056;-63
2023/01/16 03:35:00;;;;;;;9.70;4.60;;;4.70;99.90;;;;;;5095892;28;20061;-61
2023/01/16 03:37:32;;;;;;;9.57;5.10;;;4.70;99.90;;;;;;5073413;28;20036;-62
2023/01/16 03:40:01;;;;;;;8.70;5.13;;;4.70;99.90;;;;;;5092525;28;20040;-62
2023/01/16 03:42:49;;;;;;;12.52;4.78;;;4.70;99.90;;;;;;5076570;28;20504;-61
2023/01/16 03:45:39;;;;;;;10.38;4.90;;;4.70;99.90;;;;;;5078873;28;20047;-60
2023/01/16 03:48:16;;;;;;;9.02;4.97;;;4.20;99.90;;;;;;5074798;28;20051;-62
2023/01/16 03:50:48;;;;;;;10.25;5.28;;;4.70;99.90;;;;;;5073101;28;20055;-62
2023/01/16 03:53:16;;;;;;;13.23;5.30;;;4.70;99.90;;;;;;5083066;28;20131;-61
2023/01/16 03:55:49;;;;;;;8.90;5.68;;;4.70;99.90;;;;;;5091284;28;20119;-62
2023/01/16 03:58:32;;;;;;;12.18;6.22;;;4.70;99.90;;;;;;5084126;28;20032;-62
2023/01/16 04:01:14;;;;;;;10.23;6.15;;;4.70;99.90;;;;;;5083357;28;20240;-60
2023/01/16 04:03:47;;;;;;;13.48;6.95;;;4.60;99.90;;;;;;5076141;28;20452;-61
2023/01/16 04:06:17;;;;;;;13.40;6.93;;;4.60;99.90;;;;;;5074187;28;20036;-62
2023/01/16 04:08:45;;;;;;;14.90;8.07;;;4.60;99.90;;;;;;5069196;28;20040;-61
2023/01/16 04:11:13;;;;;;;19.20;8.77;;;4.60;99.90;;;;;;5082468;28;20036;-61
2023/01/16 04:13:41;;;;;;;15.05;8.48;;;4.60;99.90;;;;;;5091204;28;20032;-62
2023/01/16 04:16:10;;;;;;;20.50;10.80;;;4.60;99.90;;;;;;5091694;28;20458;-62
2023/01/16 04:18:36;;;;;;;16.83;9.98;;;4.60;99.90;;;;;;5086217;28;20045;-60
2023/01/16 04:21:06;;;;;;;17.20;10.23;;;4.60;99.90;;;;;;5091027;28;20036;-60
2023/01/16 04:23:32;;;;;;;18.60;10.82;;;4.60;99.90;;;;;;5071039;28;20075;-61
2023/01/16 04:25:58;;;;;;;20.70;10.70;;;4.60;99.90;;;;;;5085744;28;20328;-62
2023/01/16 04:28:24;;;;;;;20.17;10.98;;;4.60;99.90;;;;;;5091524;28;20478;-62
2023/01/16 04:30:49;;;;;;;16.00;10.38;;;4.70;99.90;;;;;;5091369;28;20043;-60
2023/01/16 04:33:15;;;;;;;19.70;11.18;;;4.70;99.90;;;;;;5067476;28;20036;-61
2023/01/16 04:35:40;;;;;;;20.15;11.02;;;4.70;99.90;;;;;;5077443;28;20039;-60
2023/01/16 04:38:06;;;;;;;20.55;10.88;;;4.70;99.90;;;;;;5091252;28;20141;-61
2023/01/16 04:40:31;;;;;;;23.20;10.52;;;4.70;99.90;;;;;;5091767;28;20035;-60
2023/01/16 04:42:57;;;;;;;22.67;9.55;;;4.60;99.90;;;;;;5071511;28;20043;-61
2023/01/16 04:45:23;;;;;;;20.80;9.70;;;4.60;99.90;;;;;;5069814;28;20048;-64
2023/01/16 04:47:50;;;;;;;18.27;8.95;;;4.60;99.90;;;;;;5087791;28;20042;-62
2023/01/16 04:50:16;;;;;;;15.75;8.52;;;4.50;99.90;;;;;;5080818;28;20478;-62
2023/01/16 04:52:42;;;;;;;14.35;8.63;;;4.50;99.90;;;;;;5090333;28;20048;-61
2023/01/16 04:55:09;;;;;;;17.13;8.93;;;4.40;99.90;;;;;;5088306;28;20040;-62
2023/01/16 04:57:35;;;;;;;19.08;8.93;;;4.40;99.90;;;;;;5072222;28;20040;-61
2023/01/16 05:00:03;;;;;;;17.95;8.18;;;4.40;99.90;;;;;;5074231;28;20051;-61
2023/01/16 05:02:28;;;;;;;18.50;9.00;;;4.40;99.90;;;;;;5089718;28;20043;-64
2023/01/16 05:04:54;;;;;;;15.90;8.00;;;4.30;99.90;;;;;;5083275;28;20032;-62
2023/01/16 05:07:20;;;;;;;13.38;7.38;;;4.30;99.90;;;;;;5090944;28;20035;-64
2023/01/16 05:09:45;;;;;;;15.93;8.15;;;4.30;99.90;;;;;;5086676;28;20040;-61
2023/01/16 05:12:11;;;;;;;17.10;7.55;;;4.30;99.90;;;;;;5090130;28;20501;-62
2023/01/16 05:14:36;;;;;;;15.13;8.20;;;4.30;99.90;;;;;;5088019;28;20039;-61
2023/01/16 05:17:02;;;;;;;14.32;7.15;;;4.20;99.90;;;;;;5070089;28;20043;-62
2023/01/16 05:19:27;;;;;;;14.60;7.10;;;4.20;99.90;;;;;;5077809;28;20047;-61
2023/01/16 05:21:53;;;;;;;14.00;6.13;;;4.20;99.90;;;;;;5080241;28;20040;-61
2023/01/16 05:24:19;;;;;;;15.00;6.40;;;4.20;99.90;;;;;;5071469;28;20133;-62
2023/01/16 05:26:44;;;;;;;16.63;6.38;;;4.20;99.90;;;;;;5082120;28;20039;-62
2023/01/16 05:29:10;;;;;;;13.55;6.40;;;4.10;99.90;;;;;;5069488;28;20035;-63
2023/01/16 05:31:35;;;;;;;10.23;5.70;;;4.20;99.90;;;;;;5072533;28;20071;-62
2023/01/16 05:34:01;;;;;;;18.00;5.75;;;4.20;99.90;;;;;;5086037;28;20046;-61
2023/01/16 05:36:27;;;;;;;12.13;5.60;;;4.20;99.90;;;;;;5082877;28;20040;-64
2023/01/16 05:38:54;;;;;;;11.07;5.63;;;4.20;99.90;;;;;;5088995;28;20139;-61
2023/01/16 05:41:20;;;;;;;15.95;5.70;;;4.20;99.90;;;;;;5084177;28;20535;-63
2023/01/16 05:43:46;;;;;;;11.77;5.30;;;4.20;99.90;;;;;;5083686;28;20043;-63
2023/01/16 05:46:11;;;;;;;14.23;5.10;;;4.20;99.90;;;;;;5070911;28;20491;-63
2023/01/16 05:48:38;;;;;;;8.82;4.88;;;4.20;99.90;;;;;;5090178;28;20105;-62
2023/01/16 05:51:05;;;;;;;9.40;4.78;;;4.20;99.90;;;;;;5072002;28;20083;-63
2023/01/16 05:53:30;;;;;;;13.73;5.25;;;4.20;99.90;;;;;;5084977;28;20470;-63
2023/01/16 05:55:58;;;;;;;12.93;5.10;;;4.20;99.90;;;;;;5087345;28;20073;-63
2023/01/16 05:58:23;;;;;;;9.40;4.78;;;4.30;99.90;;;;;;5087201;28;20089;-62
2023/01/16 06:00:49;;;;;;;11.48;4.28;;;4.20;99.90;;;;;;5071598;28;20040;-62
2023/01/16 06:03:18;;;;;;;11.05;4.45;;;4.20;99.90;;;;;;5084074;28;20036;-63
2023/01/16 06:05:43;;;;;;;9.00;4.55;;;4.30;99.90;;;;;;5082817;28;20044;-61
2023/01/16 06:08:10;;;;;;;13.18;4.57;;;4.30;99.90;;;;;;5086778;28;20387;-62
2023/01/16 06:10:36;;;;;;;12.60;4.07;;;4.30;99.90;;;;;;5089923;28;20122;-62
2023/01/16 06:13:02;;;;;;;10.20;4.45;;;4.30;99.90;;;;;;5087025;28;20462;-61
2023/01/16 06:15:28;;;;;;;10.20;4.88;;;4.40;99.90;;;;;;5081272;28;20044;-62
2023/01/16 06:17:55;;;;;;;10.52;3.88;;;4.40;99.90;;;;;;5087126;28;20039;-62
2023/01/16 06:20:21;;;;;;;6.03;3.47;;;4.40;99.90;;;;;;5090356;28;20040;-62
2023/01/16 06:22:46;;;;;;;7.10;3.65;;;4.40;99.90;;;;;;5089829;28;20085;-63
2023/01/16 06:25:12;;;;;;;10.65;3.97;;;4.40;99.90;;;;;;5063224;28;20131;-62
2023/01/16 06:27:38;;;;;;;12.00;3.45;;;4.50;99.90;;;;;;5079315;28;20036;-61
2023/01/16 06:30:06;;;;;;;9.63;3.78;;;4.40;99.90;;;;;;5078952;28;20040;-60
2023/01/16 06:32:32;;;;;;;10.43;3.55;;;4.40;99.90;;;;;;5089223;28;20047;-64
2023/01/16 06:34:58;;;;;;;7.07;3.30;;;4.40;99.90;;;;;;5085359;28;20044;-60
2023/01/16 06:37:23;;;;;;;10.05;3.47;;;4.40;99.90;;;;;;5085376;28;20125;-60
2023/01/16 06:39:49;;;;;;;8.75;3.08;;;4.30;99.90;;;;;;5065542;28;20041;-60
2023/01/16 06:42:15;;;;;;;9.27;2.95;;;4.40;99.90;;;;;;5080776;28;20106;-61
2023/01/16 06:44:40;;;;;;;7.82;3.05;;;4.30;99.90;;;;;;5080576;28;20439;-62
2023/01/16 06:47:06;;;;;;;11.27;3.50;;;4.30;99.90;;;;;;5090226;28;20103;-61
2023/01/16 06:49:32;;;;;;;6.00;2.97;;;4.30;99.90;;;;;;5071857;28;20035;-60
2023/01/16 06:52:00;;;;;;;9.20;3.13;;;4.40;99.90;;;;;;5071500;28;20383;-61
2023/01/16 06:54:25;;;;;;;8.95;3.25;;;4.30;99.90;;;;;;5077213;28;20133;-61
2023/01/16 06:56:51;;;;;;;11.43;3.20;;;4.30;99.90;;;;;;5073424;28;21301;-61
2023/01/16 06:59:17;;;;;;;7.82;3.15;;;4.30;99.90;;;;;;5088190;28;20477;-63
2023/01/16 07:01:42;;;;;;;12.27;3.25;;;4.30;99.90;;;;;;5084456;28;20058;-60
2023/01/16 07:04:09;;;;;;;8.90;3.40;;;4.30;99.90;;;;;;5081810;28;20047;-63
2023/01/16 07:06:35;;;;;;;6.70;2.95;;;4.30;99.90;;;;;;5079936;28;20394;-63
2023/01/16 07:09:01;;;;;;;5.90;2.85;;;4.30;99.90;;;;;;5075149;28;20043;-63
2023/01/16 07:11:27;;;;;;;8.07;3.05;;;4.30;99.90;;;;;;5078921;28;20044;-61
2023/01/16 07:22:34;;;;;;;12.25;3.70;;;4.30;99.90;;;;;;5077403;28;20394;-62
2023/01/16 07:24:52;;;;;;;10.23;3.20;;;4.30;99.90;;;;;;5072650;28;20044;-63
2023/01/16 07:27:18;;;;;;;9.40;3.35;;;4.30;99.90;;;;;;5089597;28;20036;-63
2023/01/16 07:29:43;;;;;;;7.78;3.08;;;4.40;99.90;;;;;;5092146;28;20068;-63
2023/01/16 07:32:10;;;;;;;6.88;2.70;;;4.30;99.90;;;;;;5089419;28;20030;-59
2023/01/16 07:34:36;;;;;;;7.85;3.10;;;4.40;99.90;;;;;;5072368;28;20500;-62
2023/01/16 07:37:01;;;;;;;9.85;3.83;;;4.40;99.90;;;;;;5090826;28;20063;-63
2023/01/16 07:39:27;;;;;;;10.15;4.18;;;4.30;99.90;;;;;;5090575;28;20032;-63
2023/01/16 07:41:53;;;;;;;7.97;3.67;;;4.40;99.90;;;;;;5089341;28;20505;-64
2023/01/16 07:44:18;;;;;;;10.40;3.95;;;4.30;99.90;;;;;;5090824;28;20032;-63
2023/01/16 07:46:44;;;;;;;9.38;4.03;;;4.40;99.90;;;;;;5082935;28;20036;-61
2023/01/16 07:49:10;;;;;;;9.10;3.92;;;4.40;99.90;;;;;;5072552;28;20111;-63
2023/01/16 07:51:35;;;;;;;8.07;3.50;;;4.40;99.90;;;;;;5090303;28;20032;-63
2023/01/16 07:54:01;;;;;;;10.48;4.20;;;4.40;99.90;;;;;;5089884;28;20379;-63
2023/01/16 07:56:26;;;;;;;13.20;4.10;;;4.40;99.90;;;;;;5092036;28;20035;-61
2023/01/16 07:58:54;;;;;;;11.73;4.50;;;4.40;99.90;;;;;;5086983;28;20036;-63
2023/01/16 08:01:19;;;;;;;10.57;4.60;;;4.40;99.90;;;;;;5092856;28;20558;-63
2023/01/16 08:03:45;;;;;;;8.98;4.60;;;4.40;99.90;;;;;;5066267;28;20044;-62
2023/01/16 08:06:11;;;;;;;11.30;4.55;;;4.50;99.90;;;;;;5089496;28;20063;-62
2023/01/16 08:08:36;;;;;;;12.45;4.38;;;4.50;99.90;;;;;;5090043;28;20401;-63
2023/01/16 08:11:35;;;;;;;9.95;4.68;;;4.50;99.90;;;;;;5086623;28;20043;-63
2023/01/16 08:13:51;;;;;;;11.95;4.85;;;4.50;99.90;;;;;;5091395;28;20446;-62
2023/01/16 08:16:16;;;;;;;10.15;5.40;;;4.50;99.90;;;;;;5090266;28;20509;-62
2023/01/16 08:18:42;;;;;;;10.20;5.40;;;4.50;99.90;;;;;;5069574;28;20044;-62
2023/01/16 08:21:08;;;;;;;10.73;5.90;;;4.50;99.90;;;;;;5092232;28;20036;-63
2023/01/16 08:23:33;;;;;;;14.70;5.78;;;4.60;99.90;;;;;;5078550;28;20454;-62
2023/01/16 08:26:00;;;;;;;9.73;4.80;;;4.50;99.90;;;;;;5089462;28;20123;-63
2023/01/16 08:28:26;;;;;;;7.53;4.10;;;4.60;99.90;;;;;;5075660;28;20046;-61
2023/01/16 08:30:51;;;;;;;9.00;4.90;;;4.60;99.90;;;;;;5091907;28;20043;-62
2023/01/16 08:33:17;;;;;;;8.40;4.20;;;4.60;99.90;;;;;;5092156;28;20488;-63
2023/01/16 08:35:43;;;;;;;13.40;4.40;;;4.60;99.90;;;;;;5064248;28;20094;-63
2023/01/16 08:38:08;;;;;;;10.77;4.47;;;4.60;99.90;;;;;;5082413;28;20352;-62
2023/01/16 08:40:34;;;;;;;9.40;3.92;;;4.60;99.90;;;;;;5083473;28;20051;-62
2023/01/16 08:51:22;;;;;;;10.25;3.63;;;4.60;99.90;;;;;;5067666;28;20127;-62
2023/01/16 08:53:48;;;;;;;10.75;5.53;;;4.80;99.90;;;;;;5079423;28;20051;-64
2023/01/16 08:56:13;;;;;;;11.20;5.10;;;4.60;99.90;;;;;;5077220;28;20494;-63
2023/01/16 08:58:39;;;;;;;8.20;4.40;;;4.80;99.90;;;;;;5084109;28;20125;-63
2023/01/16 09:01:05;;;;;;;8.48;4.40;;;4.70;99.90;;;;;;5091161;28;20042;-62
2023/01/16 09:03:33;;;;;;;10.65;6.32;;;4.70;99.90;;;;;;5091532;28;20050;-63
2023/01/16 09:05:59;;;;;;;12.98;7.55;;;4.70;99.90;;;;;;5084229;28;20055;-63
2023/01/16 09:08:24;;;;;;;16.38;10.65;;;4.70;99.90;;;;;;5083344;28;20398;-64
2023/01/16 09:13:49;;;;;;;16.63;10.52;;;4.70;99.90;;;;;;5073008;28;20040;-63
2023/01/16 09:16:24;;;;;;;13.27;8.35;;;4.70;99.90;;;;;;5079551;28;20443;-63
2023/01/16 09:18:51;;;;;;;10.75;7.82;;;4.80;99.90;;;;;;5080346;28;20035;-64
2023/01/16 09:21:23;;;;;;;10.52;5.65;;;4.70;99.90;;;;;;5076011;28;20101;-63
2023/01/16 09:23:49;;;;;;;8.40;3.72;;;4.80;99.90;;;;;;5078607;28;20074;-62
2023/01/16 09:26:15;;;;;;;6.93;3.05;;;4.80;99.90;;;;;;5078837;28;20032;-64
2023/01/16 09:28:41;;;;;;;8.60;3.65;;;4.80;99.90;;;;;;5074874;28;20550;-64
2023/01/16 09:31:06;;;;;;;6.70;3.97;;;4.80;99.90;;;;;;5079357;28;20032;-63
2023/01/16 09:33:32;;;;;;;7.85;4.15;;;4.80;99.90;;;;;;5076242;28;20502;-63
2023/01/16 09:35:58;;;;;;;12.18;7.60;;;4.90;99.90;;;;;;5074480;28;20045;-64
2023/01/16 09:38:23;;;;;;;9.10;6.13;;;4.80;99.90;;;;;;5074761;28;20028;-61
2023/01/16 09:40:55;;;;;;;13.60;7.63;;;4.80;99.90;;;;;;5075301;28;20041;-63
2023/01/16 09:43:38;;;;;;;10.20;6.77;;;4.80;99.90;;;;;;5075715;28;20055;-64
2023/01/16 09:46:24;;;;;;;14.10;7.90;;;4.80;99.90;;;;;;5078538;28;20036;-63
2023/01/16 09:48:59;;;;;;;6.03;4.55;;;4.80;99.90;;;;;;5064804;28;20054;-63
2023/01/16 09:51:39;;;;;;;6.03;2.85;;;4.80;99.90;;;;;;5089424;28;20052;-64
2023/01/16 09:59:58;;;;;;;8.88;4.85;;;4.70;99.90;;;;;;5073981;28;20047;-64
2023/01/16 10:02:32;;;;;;;4.80;2.58;;;4.70;99.90;;;;;;5075000;28;20094;-65
2023/01/16 10:04:58;;;;;;;6.30;2.80;;;4.70;99.90;;;;;;5076135;28;20108;-64
2023/01/16 10:07:39;;;;;;;3.83;2.35;;;4.70;99.90;;;;;;5079936;28;20070;-63
2023/01/16 10:10:35;;;;;;;5.13;2.53;;;4.70;99.90;;;;;;5084350;28;20135;-64
2023/01/16 10:13:20;;;;;;;4.35;2.17;;;4.70;99.90;;;;;;5070421;28;20040;-64
2023/01/16 10:15:48;;;;;;;4.55;2.42;;;4.80;99.90;;;;;;5064173;28;20375;-64
2023/01/16 10:18:17;;;;;;;4.95;3.05;;;4.60;99.90;;;;;;5078040;28;20490;-64
2023/01/16 10:21:18;;;;;;;7.10;2.85;;;4.60;99.90;;;;;;5082505;28;20036;-63
2023/01/16 10:24:00;;;;;;;5.97;3.53;;;4.60;99.90;;;;;;5087928;28;20115;-63
2023/01/16 10:26:55;;;;;;;5.13;2.85;;;4.60;99.90;;;;;;5084461;28;20036;-62
2023/01/16 10:29:42;;;;;;;4.50;3.15;;;4.60;99.90;;;;;;5059487;28;20067;-64
2023/01/16 10:32:35;;;;;;;4.82;3.30;;;4.60;99.90;;;;;;5087274;28;20059;-64
2023/01/16 10:35:20;;;;;;;7.82;5.10;;;4.60;99.90;;;;;;5070068;28;20247;-65
2023/01/16 10:37:47;;;;;;;7.40;3.03;;;4.60;99.90;;;;;;5086193;28;20032;-65
2023/01/16 10:40:18;;;;;;;7.82;3.85;;;4.60;99.90;;;;;;5088587;28;20495;-64
2023/01/16 10:51:06;;;;;;;7.72;4.65;;;4.60;99.90;;;;;;5078211;28;20483;-62
2023/01/16 10:53:34;;;;;;;7.60;5.18;;;4.60;99.90;;;;;;5076176;28;20028;-62
2023/01/16 10:56:00;;;;;;;6.95;4.05;;;4.60;99.90;;;;;;5071464;28;20044;-63
2023/01/16 10:58:29;;;;;;;6.95;4.13;;;4.60;99.90;;;;;;5053038;28;20037;-64
2023/01/16 11:01:00;;;;;;;4.72;3.00;;;4.60;99.90;;;;;;5066200;28;20040;-64
2023/01/16 11:03:37;;;;;;;4.43;2.70;;;4.60;99.90;;;;;;5050831;28;20048;-63
2023/01/16 11:06:10;;;;;;;9.32;4.95;;;4.60;99.90;;;;;;5087046;28;20103;-63
2023/01/16 11:08:36;;;;;;;11.27;8.10;;;4.70;99.90;;;;;;5081245;28;20070;-64
2023/01/16 11:11:02;;;;;;;6.60;5.00;;;4.70;99.90;;;;;;5089969;28;20098;-65
2023/01/16 11:19:15;;;;;;;7.13;2.60;;;4.70;99.90;;;;;;5058556;28;20041;-63
2023/01/16 11:21:43;;;;;;;6.50;2.45;;;4.70;99.90;;;;;;5074317;28;20052;-62
2023/01/16 11:24:18;;;;;;;5.35;3.13;;;4.70;99.90;;;;;;5073705;28;20046;-63
2023/01/16 11:26:54;;;;;;;7.15;3.65;;;4.70;99.90;;;;;;5071161;28;20541;-64
2023/01/16 11:29:23;;;;;;;6.85;3.63;;;4.70;99.90;;;;;;5075458;28;20445;-63
2023/01/16 11:31:56;;;;;;;7.00;3.60;;;4.70;99.90;;;;;;5075535;28;20049;-63
2023/01/16 11:34:27;;;;;;;8.93;4.88;;;4.70;99.90;;;;;;5061598;28;20044;-64
2023/01/16 11:37:00;;;;;;;10.20;4.95;;;4.80;99.90;;;;;;5077164;28;20036;-62
2023/01/16 11:39:29;;;;;;;5.68;3.22;;;4.80;99.90;;;;;;5084758;28;20024;-61
2023/01/16 11:41:58;;;;;;;6.85;3.30;;;4.80;99.90;;;;;;5062386;28;20041;-62
2023/01/16 11:47:40;;;;;;;5.28;2.80;;;4.80;99.90;;;;;;5049154;28;20438;-62
2023/01/16 11:50:28;;;;;;;6.70;4.05;;;4.90;99.90;;;;;;5080576;28;20124;-62
2023/01/16 11:52:54;;;;;;;6.80;4.35;;;4.80;99.90;;;;;;5080201;28;20032;-62
2023/01/16 11:55:25;;;;;;;6.78;3.17;;;4.90;99.90;;;;;;5081992;28;20055;-62
2023/01/16 11:57:56;;;;;;;5.72;3.00;;;4.90;99.90;;;;;;5047675;28;20047;-62
2023/01/16 12:00:34;;;;;;;5.20;2.60;;;4.90;99.90;;;;;;5078566;28;20485;-62
2023/01/16 12:03:25;;;;;;;6.30;2.40;;;4.90;99.90;;;;;;5071119;28;20371;-64
2023/01/16 12:06:06;;;;;;;5.50;2.42;;;4.90;99.90;;;;;;5044121;28;20055;-62
2023/01/16 12:08:47;;;;;;;9.35;2.65;;;4.90;99.90;;;;;;5061056;28;20048;-64
2023/01/16 12:11:31;;;;;;;7.32;2.33;;;4.90;99.90;;;;;;5070284;28;20190;-64
2023/01/16 12:16:59;;;;;;;5.00;2.47;;;5.00;99.90;;;;;;5072626;28;20501;-62
2023/01/16 12:19:50;;;;;;;6.03;2.60;;;5.00;99.90;;;;;;5069640;28;20076;-63
2023/01/16 12:22:54;;;;;;;3.65;2.28;;;5.00;99.90;;;;;;5058481;28;20118;-63
2023/01/16 12:25:41;;;;;;;5.60;2.75;;;5.00;99.90;;;;;;5016148;28;20040;-63
2023/01/16 12:28:31;;;;;;;4.68;2.67;;;5.00;99.90;;;;;;5084662;28;21115;-64
2023/01/16 12:34:04;;;;;;;5.10;2.47;;;5.00;99.90;;;;;;5065248;28;20048;-65
2023/01/16 12:37:07;;;;;;;4.03;2.45;;;5.00;99.90;;;;;;5068643;28;20046;-64
2023/01/16 12:40:08;;;;;;;6.10;2.90;;;5.00;99.90;;;;;;5058109;28;20518;-63
2023/01/16 12:45:37;;;;;;;6.40;2.70;;;5.00;99.90;;;;;;5058824;28;20045;-64
2023/01/16 12:48:07;;;;;;;5.78;2.67;;;5.00;99.90;;;;;;5073643;28;20052;-64
2023/01/16 12:51:00;;;;;;;6.65;3.25;;;5.00;99.90;;;;;;5058645;28;20044;-63
2023/01/16 12:53:37;;;;;;;5.63;3.63;;;5.00;99.90;;;;;;5080680;28;20405;-64
2023/01/16 12:56:08;;;;;;;6.53;4.07;;;5.00;99.90;;;;;;5078489;28;20036;-64
2023/01/16 12:58:38;;;;;;;5.93;2.90;;;5.00;99.90;;;;;;5056695;28;20047;-65
2023/01/16 13:01:09;;;;;;;8.25;3.05;;;5.10;99.90;;;;;;5074201;28;20773;-63
2023/01/16 13:03:53;;;;;;;8.35;3.17;;;5.10;99.90;;;;;;5073759;28;20041;-64
2023/01/16 13:06:41;;;;;;;4.35;2.45;;;5.10;99.90;;;;;;5062312;28;20051;-64
2023/01/16 13:09:36;;;;;;;6.25;3.50;;;5.10;99.90;;;;;;5058258;28;20048;-64
2023/01/16 13:15:27;;;;;;;6.10;2.90;;;5.10;99.90;;;;;;5053595;28;20123;-63
2023/01/16 13:18:08;;;;;;;6.15;2.90;;;5.10;99.90;;;;;;5072391;28;20380;-64
2023/01/16 13:20:34;;;;;;;5.18;2.92;;;5.40;99.90;;;;;;5077050;28;20079;-63
2023/01/16 13:23:18;;;;;;;4.72;2.42;;;5.10;99.90;;;;;;5078925;28;20119;-63
2023/01/16 13:25:46;;;;;;;5.00;2.95;;;5.20;99.90;;;;;;5076173;28;20048;-63
2023/01/16 13:28:32;;;;;;;4.00;2.38;;;5.20;99.90;;;;;;5076833;28;20312;-64
2023/01/16 13:31:02;;;;;;;4.05;2.10;;;5.20;99.90;;;;;;5071122;28;20468;-64
2023/01/16 13:33:32;;;;;;;6.55;2.58;;;5.20;99.90;;;;;;5075753;28;20060;-65
2023/01/16 13:36:25;;;;;;;4.43;2.17;;;5.20;99.90;;;;;;5073603;28;20558;-64
2023/01/16 13:39:25;;;;;;;6.55;2.42;;;5.20;99.90;;;;;;5062940;28;20048;-64
2023/01/16 13:41:55;;;;;;;5.80;2.20;;;5.20;99.90;;;;;;5072280;28;20060;-64
2023/01/16 13:47:11;;;;;;;16.27;9.30;;;5.20;99.90;;;;;;5077581;28;20088;-64
2023/01/16 13:49:38;;;;;;;5.93;3.25;;;5.20;99.90;;;;;;5088598;28;20028;-64
2023/01/16 13:52:12;;;;;;;5.65;2.85;;;5.20;99.90;;;;;;5085512;28;20044;-64
2023/01/16 13:54:42;;;;;;;5.55;2.30;;;5.20;99.90;;;;;;5069791;28;20047;-64
2023/01/16 13:57:19;;;;;;;14.95;5.70;;;5.20;99.90;;;;;;5070869;28;20044;-65
2023/01/16 13:59:59;;;;;;;9.25;4.25;;;5.20;99.90;;;;;;5073915;28;20036;-64
2023/01/16 14:02:27;;;;;;;9.75;4.97;;;5.20;99.90;;;;;;5065200;28;20487;-65
2023/01/16 14:05:04;;;;;;;7.53;4.13;;;5.20;99.90;;;;;;5079792;28;20048;-64
2023/01/16 14:10:48;;;;;;;7.50;4.60;;;5.30;99.90;;;;;;5082157;28;20047;-63
2023/01/16 14:13:24;;;;;;;10.27;4.30;;;5.30;99.90;;;;;;5084915;28;20126;-64
2023/01/16 14:19:02;;;;;;;10.00;5.32;;;5.30;99.90;;;;;;5067173;28;20040;-64
2023/01/16 14:24:45;;;;;;;5.53;2.40;;;5.40;99.90;;;;;;5072305;28;20109;-65
2023/01/16 14:27:21;;;;;;;8.80;5.30;;;5.40;99.90;;;;;;5089632;28;20032;-63
2023/01/16 14:29:59;;;;;;;4.90;2.47;;;5.40;99.90;;;;;;5064409;28;20036;-64